Current Weather

City

City, United Kingdom (EGLC)

Report from: Tuesday, February 27, 2024 8:50 AM GMT
Current time: Tuesday, February 27, 2024 9:32 AM GMT

Nearby weather – Weather history – Daily summaries
Weather forecast

Temperature5.0°C (41.0°F)
Wind chill2.8°C (37.1°F)
Dew point2.0°C (35.6°F)
Winds 5 kts (2.6 m/s, 5.8 mph) West-Northwest (300°)
Visibility6.2 mi. (10 km)
Clouds Sky clear
Altimeter30.18 in.Hg (1022 mB)
Relative humidity81 %
Density altitude-1,401 ft. (-427 m)
Remarks Fully automated report
No clouds detected
Flight conditions Visual Meteorological Conditions
Raw dataEGLC 270850Z AUTO 30005KT 9999 NCD 05/02 Q1022
An error has occurred. This application may no longer respond until reloaded. Reload 🗙